createdAt,value
2023-04-23T00:00:37.259Z,99.90
2023-04-23T00:03:24.130Z,99.90
2023-04-23T00:06:13.149Z,99.90
2023-04-23T00:09:00.104Z,99.90
2023-04-23T00:11:45.716Z,99.90
2023-04-23T00:14:31.348Z,99.90
2023-04-23T00:17:17.074Z,99.90
2023-04-23T00:20:02.825Z,99.90
2023-04-23T00:22:48.595Z,99.90
2023-04-23T00:25:34.418Z,99.90
2023-04-23T00:28:21.983Z,99.90
2023-04-23T00:31:07.821Z,99.90
2023-04-23T00:33:54.015Z,99.90
2023-04-23T00:36:39.494Z,99.90
2023-04-23T00:39:25.341Z,99.90
2023-04-23T00:42:12.623Z,99.90
2023-04-23T00:44:58.390Z,99.90
2023-04-23T00:47:44.426Z,99.90
2023-04-23T00:50:30.089Z,99.90
2023-04-23T00:53:16.657Z,99.90
2023-04-23T00:56:04.200Z,99.90
2023-04-23T00:58:50.794Z,99.90
2023-04-23T01:01:37.126Z,99.90
2023-04-23T01:04:22.954Z,99.90
2023-04-23T01:07:08.435Z,99.90
2023-04-23T01:09:54.769Z,99.90
2023-04-23T01:12:40.352Z,99.90
2023-04-23T01:15:25.715Z,99.90
2023-04-23T01:18:12.871Z,99.90
2023-04-23T01:20:58.889Z,99.90
2023-04-23T01:23:44.649Z,99.90
2023-04-23T01:26:30.575Z,99.90
2023-04-23T01:29:16.097Z,99.90
2023-04-23T01:32:02.304Z,99.90
2023-04-23T01:34:48.285Z,99.90
2023-04-23T01:37:35.557Z,99.90
2023-04-23T01:40:21.392Z,99.90
2023-04-23T01:43:07.378Z,99.90
2023-04-23T01:45:53.063Z,99.90
2023-04-23T01:48:38.699Z,99.90
2023-04-23T01:51:25.830Z,99.90
2023-04-23T01:54:11.498Z,99.90
2023-04-23T01:56:58.919Z,99.90
2023-04-23T01:59:44.762Z,99.90
2023-04-23T02:02:30.455Z,99.90
2023-04-23T02:05:18.789Z,99.90
2023-04-23T02:08:04.454Z,99.90
2023-04-23T02:10:50.657Z,99.90
2023-04-23T02:13:36.655Z,99.90
2023-04-23T02:16:24.925Z,99.90
2023-04-23T02:19:12.122Z,99.90
2023-04-23T02:21:58.840Z,99.90
2023-04-23T02:24:44.617Z,99.90
2023-04-23T02:27:30.287Z,99.90
2023-04-23T02:30:15.893Z,99.90
2023-04-23T02:33:01.448Z,99.90
2023-04-23T02:35:47.359Z,99.90
2023-04-23T02:38:32.978Z,99.90
2023-04-23T02:41:18.315Z,99.90
2023-04-23T02:44:04.197Z,99.90
2023-04-23T02:46:50.118Z,99.90
2023-04-23T02:49:36.449Z,99.90
2023-04-23T02:52:21.798Z,99.90
2023-04-23T02:55:08.501Z,99.90
2023-04-23T02:57:54.354Z,99.90
2023-04-23T03:00:40.001Z,99.90
2023-04-23T03:03:27.023Z,99.90
2023-04-23T03:06:12.650Z,99.90
2023-04-23T03:08:58.219Z,99.90
2023-04-23T03:11:44.128Z,99.90
2023-04-23T03:14:31.937Z,99.90
2023-04-23T03:17:17.913Z,99.90
2023-04-23T03:20:04.256Z,99.90
2023-04-23T03:22:50.188Z,99.90
2023-04-23T03:25:36.054Z,99.90
2023-04-23T03:28:22.255Z,99.90
2023-04-23T03:31:08.085Z,99.90
2023-04-23T03:33:53.988Z,99.90
2023-04-23T03:36:48.757Z,99.90
2023-04-23T03:39:35.360Z,99.90
2023-04-23T03:42:20.982Z,99.90
2023-04-23T03:45:08.195Z,99.90
2023-04-23T03:47:54.221Z,99.90
2023-04-23T03:50:40.834Z,99.90
2023-04-23T03:53:46.479Z,99.90
2023-04-23T03:56:51.258Z,99.90
2023-04-23T03:59:41.686Z,99.90
2023-04-23T04:02:28.292Z,99.90
2023-04-23T04:05:14.528Z,99.90
2023-04-23T04:08:00.426Z,99.90
2023-04-23T04:10:46.159Z,99.90
2023-04-23T04:13:31.851Z,99.90
2023-04-23T04:16:17.826Z,99.90
2023-04-23T04:19:03.725Z,99.90
2023-04-23T04:21:49.048Z,99.90
2023-04-23T04:24:35.600Z,99.90
2023-04-23T04:27:21.121Z,99.90
2023-04-23T04:30:07.301Z,99.90
2023-04-23T04:32:52.924Z,99.90
2023-04-23T04:35:38.803Z,99.90
2023-04-23T04:38:24.548Z,99.90
2023-04-23T04:41:11.507Z,99.90
2023-04-23T04:43:58.681Z,99.90
2023-04-23T04:46:45.133Z,99.90
2023-04-23T04:49:30.944Z,99.90
2023-04-23T04:52:16.929Z,99.90
2023-04-23T04:55:02.604Z,99.90
2023-04-23T04:57:48.294Z,99.90
2023-04-23T05:00:34.541Z,99.90
2023-04-23T05:03:20.550Z,99.90
2023-04-23T05:06:06.401Z,99.90
2023-04-23T05:08:51.892Z,99.90
2023-04-23T05:11:37.627Z,99.90
2023-04-23T05:14:23.581Z,99.90
2023-04-23T05:17:08.920Z,99.90
2023-04-23T05:19:54.721Z,99.90
2023-04-23T05:22:41.579Z,99.90
2023-04-23T05:25:27.322Z,99.90
2023-04-23T05:28:13.289Z,99.90
2023-04-23T05:30:58.822Z,99.90
2023-04-23T05:33:49.880Z,99.90
2023-04-23T05:36:36.759Z,99.90
2023-04-23T05:39:22.519Z,99.90
2023-04-23T05:42:07.944Z,99.90
2023-04-23T05:44:53.566Z,99.90
2023-04-23T05:47:39.317Z,99.90
2023-04-23T05:50:25.086Z,99.90
2023-04-23T05:53:10.740Z,99.90
2023-04-23T05:55:56.630Z,99.90
2023-04-23T05:58:42.274Z,99.90
2023-04-23T06:01:27.662Z,99.90
2023-04-23T06:04:13.767Z,99.90
2023-04-23T06:06:59.709Z,99.90
2023-04-23T06:09:45.082Z,99.90
2023-04-23T06:12:30.923Z,99.90
2023-04-23T06:15:16.642Z,99.90
2023-04-23T06:18:02.375Z,99.90
2023-04-23T06:20:48.946Z,99.90
2023-04-23T06:23:34.819Z,99.90
2023-04-23T06:26:20.972Z,99.90
2023-04-23T06:29:08.521Z,99.90
2023-04-23T06:32:01.265Z,99.90
2023-04-23T06:34:59.593Z,99.90
2023-04-23T06:37:46.048Z,99.90
2023-04-23T06:40:32.090Z,99.90
2023-04-23T06:43:17.864Z,99.90
2023-04-23T06:46:29.709Z,99.90
2023-04-23T06:49:16.013Z,99.90
2023-04-23T06:52:01.871Z,99.90
2023-04-23T06:54:47.361Z,99.90
2023-04-23T06:57:33.258Z,99.90
2023-04-23T07:00:19.292Z,99.90
2023-04-23T07:03:05.729Z,99.90
2023-04-23T07:05:51.176Z,99.90
2023-04-23T07:08:37.003Z,99.90
2023-04-23T07:11:22.613Z,99.90
2023-04-23T07:14:09.164Z,99.90
2023-04-23T07:16:54.722Z,99.90
2023-04-23T07:19:40.209Z,99.90
2023-04-23T07:22:26.434Z,99.90
2023-04-23T07:25:12.559Z,99.90
2023-04-23T07:27:58.726Z,99.90
2023-04-23T07:30:44.685Z,99.90
2023-04-23T07:33:30.446Z,99.90
2023-04-23T07:36:16.384Z,99.90
2023-04-23T07:39:02.163Z,99.90
2023-04-23T07:41:47.736Z,99.90
2023-04-23T07:44:33.397Z,99.90
2023-04-23T07:47:19.228Z,99.90
2023-04-23T07:50:05.408Z,99.90
2023-04-23T07:52:50.863Z,99.90
2023-04-23T07:55:36.711Z,99.90
2023-04-23T07:58:22.313Z,99.90
2023-04-23T08:01:07.896Z,99.90
2023-04-23T08:03:59.080Z,99.90
2023-04-23T08:06:47.996Z,99.90
2023-04-23T08:09:33.722Z,99.90
2023-04-23T08:12:19.553Z,99.90
2023-04-23T08:15:05.265Z,99.90
2023-04-23T08:17:57.436Z,99.90
2023-04-23T08:20:42.988Z,99.90
2023-04-23T08:23:28.792Z,99.90
2023-04-23T08:26:14.256Z,99.90
2023-04-23T08:29:03.263Z,99.90
2023-04-23T08:31:49.234Z,99.90
2023-04-23T08:34:35.850Z,99.90
2023-04-23T08:37:30.218Z,99.90
2023-04-23T08:40:17.106Z,99.90
2023-04-23T08:43:03.489Z,99.90
2023-04-23T08:45:49.541Z,99.90
2023-04-23T08:48:35.703Z,99.90
2023-04-23T08:51:21.698Z,99.90
2023-04-23T08:54:09.842Z,99.90
2023-04-23T08:56:58.903Z,99.90
2023-04-23T08:59:45.214Z,99.90
2023-04-23T09:02:31.471Z,99.90
2023-04-23T09:05:17.175Z,99.90
2023-04-23T09:08:02.569Z,99.90
2023-04-23T09:10:50.340Z,99.90
2023-04-23T09:13:36.880Z,99.90
2023-04-23T09:16:26.220Z,99.90
2023-04-23T09:19:13.405Z,99.90
2023-04-23T09:22:02.054Z,99.90
2023-04-23T09:24:47.877Z,99.90
2023-04-23T09:27:33.524Z,99.90
2023-04-23T09:30:19.751Z,99.90
2023-04-23T09:33:05.330Z,99.90
2023-04-23T09:35:52.212Z,99.90
2023-04-23T09:38:39.588Z,99.90
2023-04-23T09:41:26.027Z,99.90
2023-04-23T09:44:14.715Z,99.90
2023-04-23T09:47:09.820Z,99.90
2023-04-23T09:49:56.208Z,99.90
2023-04-23T09:52:41.766Z,99.90
2023-04-23T09:55:35.175Z,99.90
2023-04-23T09:58:26.012Z,99.90
2023-04-23T10:01:15.315Z,99.90
2023-04-23T10:04:01.651Z,99.90
2023-04-23T10:06:57.941Z,99.90
2023-04-23T10:09:56.180Z,99.90
2023-04-23T10:12:54.208Z,99.90
2023-04-23T10:15:41.077Z,99.90
2023-04-23T10:18:26.945Z,99.90
2023-04-23T10:21:14.701Z,99.90
2023-04-23T10:24:02.195Z,99.90
2023-04-23T10:26:48.271Z,99.90
2023-04-23T10:29:34.601Z,99.90
2023-04-23T10:32:20.859Z,99.90
2023-04-23T10:35:07.385Z,99.90
2023-04-23T10:37:53.449Z,99.90
2023-04-23T10:40:40.448Z,99.90
2023-04-23T10:43:29.836Z,99.90
2023-04-23T10:46:31.524Z,99.90
2023-04-23T10:49:17.471Z,99.90
2023-04-23T10:54:58.141Z,99.90
2023-04-23T10:58:01.917Z,99.90
2023-04-23T11:00:48.620Z,99.90
2023-04-23T11:03:43.638Z,99.90
2023-04-23T11:06:48.108Z,99.90
2023-04-23T11:09:41.205Z,99.90
2023-04-23T11:12:27.184Z,99.90
2023-04-23T11:15:13.846Z,99.90
2023-04-23T11:18:00.204Z,99.90
2023-04-23T11:20:47.738Z,99.90
2023-04-23T11:23:33.232Z,99.90
2023-04-23T11:26:19.495Z,99.90
2023-04-23T11:29:06.249Z,99.90
2023-04-23T11:34:45.217Z,99.90
2023-04-23T11:37:31.080Z,99.90
2023-04-23T11:40:20.950Z,99.90
2023-04-23T11:43:06.598Z,99.90
2023-04-23T11:45:53.130Z,99.90
2023-04-23T11:48:39.215Z,99.90
2023-04-23T11:51:28.423Z,99.90
2023-04-23T11:54:14.670Z,99.90
2023-04-23T11:57:01.633Z,99.90
2023-04-23T11:59:47.394Z,99.90
2023-04-23T12:02:33.255Z,99.90
2023-04-23T12:05:22.960Z,99.90
2023-04-23T12:08:10.227Z,99.90
2023-04-23T12:11:02.016Z,99.90
2023-04-23T12:13:47.601Z,99.90
2023-04-23T12:16:34.253Z,99.90
2023-04-23T12:19:21.207Z,99.90
2023-04-23T12:22:09.810Z,99.90
2023-04-23T12:24:55.336Z,99.90
2023-04-23T12:27:42.554Z,99.90
2023-04-23T12:30:31.673Z,99.90
2023-04-23T12:33:18.676Z,99.90
2023-04-23T12:36:15.867Z,99.90
2023-04-23T12:39:20.988Z,99.90
2023-04-23T12:42:09.796Z,99.90
2023-04-23T12:44:56.701Z,99.90
2023-04-23T12:47:42.997Z,99.90
2023-04-23T12:50:28.250Z,99.90
2023-04-23T12:53:13.932Z,99.90
2023-04-23T12:55:59.632Z,99.90
2023-04-23T12:58:46.475Z,99.90
2023-04-23T13:01:33.359Z,99.90
2023-04-23T13:04:18.867Z,99.90
2023-04-23T13:07:04.615Z,99.90
2023-04-23T13:09:50.857Z,99.90
2023-04-23T13:12:36.571Z,99.90
2023-04-23T13:15:22.506Z,99.90
2023-04-23T13:18:09.943Z,99.90
2023-04-23T13:20:55.466Z,99.90
2023-04-23T13:23:41.129Z,99.90
2023-04-23T13:26:32.160Z,99.90
2023-04-23T13:29:17.765Z,99.90
2023-04-23T13:32:03.943Z,99.90
2023-04-23T13:34:50.011Z,99.90
2023-04-23T13:37:35.698Z,99.90
2023-04-23T13:40:21.308Z,99.90
2023-04-23T13:43:06.858Z,99.90
2023-04-23T13:45:55.741Z,99.90
2023-04-23T13:48:41.561Z,99.90
2023-04-23T13:54:20.649Z,99.90
2023-04-23T13:57:45.910Z,99.90
2023-04-23T14:00:43.641Z,99.90
2023-04-23T14:03:29.560Z,99.90
2023-04-23T14:06:15.381Z,99.90
2023-04-23T14:09:01.184Z,99.90
2023-04-23T14:11:46.743Z,99.90
2023-04-23T14:14:32.609Z,99.90
2023-04-23T14:17:18.339Z,99.90
2023-04-23T14:20:05.843Z,99.90
2023-04-23T14:22:55.824Z,99.90
2023-04-23T14:25:41.854Z,99.90
2023-04-23T14:28:27.355Z,99.90
2023-04-23T14:31:16.850Z,99.90
2023-04-23T14:34:02.676Z,99.90
2023-04-23T14:36:49.416Z,99.90
2023-04-23T14:39:35.444Z,99.90
2023-04-23T14:42:21.103Z,99.90
2023-04-23T14:45:07.494Z,99.90
2023-04-23T14:47:54.922Z,99.90
2023-04-23T14:50:40.410Z,99.90
2023-04-23T14:53:26.039Z,99.90
2023-04-23T14:56:11.784Z,99.90
2023-04-23T14:58:57.671Z,99.90
2023-04-23T15:01:43.946Z,99.90
2023-04-23T15:04:29.980Z,99.90
2023-04-23T15:07:15.505Z,99.90
2023-04-23T15:10:06.308Z,99.90
2023-04-23T15:13:09.401Z,99.90
2023-04-23T15:16:02.861Z,99.90
2023-04-23T15:18:48.542Z,99.90
2023-04-23T15:21:34.009Z,99.90
2023-04-23T15:24:19.683Z,99.90
2023-04-23T15:27:05.773Z,99.60
2023-04-23T15:29:51.143Z,99.70
2023-04-23T15:32:37.022Z,99.30
2023-04-23T15:35:26.483Z,98.40
2023-04-23T15:38:12.014Z,98.60
2023-04-23T15:40:57.789Z,98.90
2023-04-23T15:43:43.510Z,98.70
2023-04-23T15:46:29.513Z,98.90
2023-04-23T15:49:15.167Z,99.00
2023-04-23T15:52:01.146Z,98.90
2023-04-23T15:54:46.719Z,98.50
2023-04-23T15:57:32.200Z,98.50
2023-04-23T16:00:18.827Z,98.60
2023-04-23T16:03:06.633Z,98.70
2023-04-23T16:05:52.606Z,98.30
2023-04-23T16:08:38.520Z,98.60
2023-04-23T16:11:27.664Z,98.50
2023-04-23T16:14:13.431Z,97.60
2023-04-23T16:16:59.207Z,97.60
2023-04-23T16:19:45.117Z,97.80
2023-04-23T16:22:30.835Z,98.00
2023-04-23T16:25:16.593Z,97.90
2023-04-23T16:28:02.328Z,97.60
2023-04-23T16:30:47.867Z,97.90
2023-04-23T16:33:33.396Z,98.00
2023-04-23T16:36:19.921Z,98.40
2023-04-23T16:39:05.555Z,98.30
2023-04-23T16:41:51.594Z,98.60
2023-04-23T16:44:37.063Z,97.90
2023-04-23T16:47:22.910Z,97.40
2023-04-23T16:50:08.663Z,97.30
2023-04-23T16:52:54.143Z,97.30
2023-04-23T16:55:40.116Z,97.30
2023-04-23T16:58:25.613Z,97.50
2023-04-23T17:01:11.672Z,97.40
2023-04-23T17:03:57.328Z,97.60
2023-04-23T17:06:42.883Z,98.00
2023-04-23T17:09:29.062Z,98.00
2023-04-23T17:12:14.847Z,97.70
2023-04-23T17:15:00.960Z,97.40
2023-04-23T17:17:46.576Z,97.50
2023-04-23T17:20:35.310Z,97.70
2023-04-23T17:23:20.828Z,98.00
2023-04-23T17:26:06.841Z,98.00
2023-04-23T17:28:52.350Z,98.00
2023-04-23T17:31:38.629Z,98.40
2023-04-23T17:34:24.241Z,98.50
2023-04-23T17:37:10.027Z,98.30
2023-04-23T17:39:55.953Z,98.50
2023-04-23T17:42:41.748Z,98.90
2023-04-23T17:45:27.265Z,99.00
2023-04-23T17:48:15.034Z,99.30
2023-04-23T17:51:01.967Z,98.90
2023-04-23T17:53:48.695Z,99.40
2023-04-23T17:56:34.655Z,99.30
2023-04-23T17:59:20.155Z,99.30
2023-04-23T18:02:06.242Z,99.40
2023-04-23T18:04:51.680Z,99.50
2023-04-23T18:07:37.719Z,99.60
2023-04-23T18:10:23.403Z,99.70
2023-04-23T18:13:11.551Z,99.90
2023-04-23T18:15:56.986Z,99.90
2023-04-23T18:18:42.998Z,99.90
2023-04-23T18:21:29.302Z,99.90
2023-04-23T18:24:18.287Z,99.90
2023-04-23T18:27:04.335Z,99.90
2023-04-23T18:29:49.654Z,99.90
2023-04-23T18:32:39.988Z,99.90
2023-04-23T18:35:26.480Z,99.90
2023-04-23T18:38:23.192Z,99.90
2023-04-23T18:41:09.111Z,99.90
2023-04-23T18:43:54.855Z,99.90
2023-04-23T18:46:40.772Z,99.90
2023-04-23T18:49:29.297Z,99.90
2023-04-23T18:52:15.055Z,99.90
2023-04-23T18:55:00.793Z,99.90
2023-04-23T18:57:46.718Z,99.90
2023-04-23T19:00:32.499Z,99.90
2023-04-23T19:03:25.958Z,99.90
2023-04-23T19:06:12.077Z,99.90
2023-04-23T19:09:07.468Z,99.90
2023-04-23T19:11:54.110Z,99.90
2023-04-23T19:14:39.676Z,99.90
2023-04-23T19:17:25.477Z,99.90
2023-04-23T19:20:12.872Z,99.90
2023-04-23T19:22:58.576Z,99.90
2023-04-23T19:25:44.385Z,99.90
2023-04-23T19:28:30.382Z,99.90
2023-04-23T19:31:17.311Z,99.90
2023-04-23T19:34:03.001Z,99.90
2023-04-23T19:36:48.786Z,99.90
2023-04-23T19:39:34.665Z,99.90
2023-04-23T19:42:21.898Z,99.90
2023-04-23T19:45:07.844Z,99.90
2023-04-23T19:47:53.470Z,99.90
2023-04-23T19:50:39.019Z,99.90
2023-04-23T19:53:25.742Z,99.90
2023-04-23T19:56:13.228Z,99.90
2023-04-23T19:58:58.929Z,99.90
2023-04-23T20:01:44.697Z,99.90
2023-04-23T20:04:30.674Z,99.90
2023-04-23T20:07:17.036Z,99.90
2023-04-23T20:10:02.877Z,99.90
2023-04-23T20:12:48.454Z,99.90
2023-04-23T20:15:34.171Z,99.90
2023-04-23T20:18:20.042Z,99.90
2023-04-23T20:21:06.335Z,99.90
2023-04-23T20:23:51.819Z,99.90
2023-04-23T20:26:38.222Z,99.90
2023-04-23T20:29:23.762Z,99.90
2023-04-23T20:32:09.282Z,99.90
2023-04-23T20:34:54.744Z,99.90
2023-04-23T20:37:41.271Z,99.90
2023-04-23T20:40:27.085Z,99.90
2023-04-23T20:43:13.584Z,99.90
2023-04-23T20:46:00.072Z,99.90
2023-04-23T20:48:45.912Z,99.90
2023-04-23T20:51:34.550Z,99.90
2023-04-23T20:54:20.369Z,99.90
2023-04-23T20:57:06.314Z,99.90
2023-04-23T20:59:51.733Z,99.90
2023-04-23T21:02:38.135Z,99.90
2023-04-23T21:05:23.595Z,99.90
2023-04-23T21:08:09.271Z,99.90
2023-04-23T21:10:55.338Z,99.90
2023-04-23T21:13:41.139Z,99.90
2023-04-23T21:16:27.329Z,99.90
2023-04-23T21:19:12.927Z,99.90
2023-04-23T21:22:01.822Z,99.90
2023-04-23T21:24:47.183Z,99.90
2023-04-23T21:27:33.047Z,99.90
2023-04-23T21:30:33.047Z,99.90
2023-04-23T21:33:19.356Z,99.90
2023-04-23T21:36:05.075Z,99.90
2023-04-23T21:38:50.623Z,99.90
2023-04-23T21:41:36.164Z,99.90
2023-04-23T21:44:22.048Z,99.90
2023-04-23T21:47:07.789Z,99.90
2023-04-23T21:49:54.911Z,99.90
2023-04-23T21:52:42.946Z,99.90
2023-04-23T21:55:29.397Z,99.90
2023-04-23T21:58:17.808Z,99.90
2023-04-23T22:01:04.070Z,99.90
2023-04-23T22:03:51.048Z,99.90
2023-04-23T22:06:36.916Z,99.90
2023-04-23T22:09:23.217Z,99.90
2023-04-23T22:12:08.870Z,99.90
2023-04-23T22:14:54.602Z,99.90
2023-04-23T22:17:40.725Z,99.90
2023-04-23T22:20:27.163Z,99.90
2023-04-23T22:23:12.713Z,99.90
2023-04-23T22:25:58.218Z,99.90
2023-04-23T22:28:44.186Z,99.90
2023-04-23T22:31:29.733Z,99.90
2023-04-23T22:34:15.475Z,99.90
2023-04-23T22:37:01.387Z,99.90
2023-04-23T22:39:47.058Z,99.90
2023-04-23T22:42:32.783Z,99.90
2023-04-23T22:45:18.637Z,99.90
2023-04-23T22:48:04.413Z,99.90
2023-04-23T22:50:50.959Z,99.90
2023-04-23T22:53:36.604Z,99.90
2023-04-23T22:56:22.203Z,99.90
2023-04-23T22:59:08.160Z,99.90
2023-04-23T23:01:53.790Z,99.90
2023-04-23T23:04:39.415Z,99.90
2023-04-23T23:07:24.803Z,99.90
2023-04-23T23:10:10.787Z,99.90
2023-04-23T23:12:56.500Z,99.90
2023-04-23T23:15:42.241Z,99.90
2023-04-23T23:18:27.980Z,99.90
2023-04-23T23:21:13.766Z,99.90
2023-04-23T23:23:59.524Z,99.90
2023-04-23T23:26:45.266Z,99.90
2023-04-23T23:29:30.889Z,99.90
2023-04-23T23:32:16.663Z,99.90
2023-04-23T23:35:02.648Z,99.90
2023-04-23T23:37:48.021Z,99.90
2023-04-23T23:40:33.954Z,99.90
2023-04-23T23:43:19.531Z,99.90
2023-04-23T23:46:05.319Z,99.90
2023-04-23T23:48:51.084Z,99.90
2023-04-23T23:51:36.779Z,99.90
2023-04-23T23:54:22.474Z,99.90
2023-04-23T23:57:08.203Z,99.90
2023-04-23T23:59:53.832Z,99.90
